createdAt,value
2023-01-03T00:01:51.153Z,4.40
2023-01-03T00:03:56.245Z,4.30
2023-01-03T00:05:58.027Z,4.00
2023-01-03T00:07:59.803Z,4.17
2023-01-03T00:10:09.411Z,3.93
2023-01-03T00:12:30.804Z,3.90
2023-01-03T00:14:36.140Z,4.20
2023-01-03T00:16:39.134Z,3.60
2023-01-03T00:18:40.977Z,4.27
2023-01-03T00:20:43.035Z,3.63
2023-01-03T00:22:44.867Z,4.10
2023-01-03T00:24:48.867Z,3.97
2023-01-03T00:26:51.223Z,4.07
2023-01-03T00:28:53.143Z,4.07
2023-01-03T00:30:54.894Z,3.90
2023-01-03T00:32:56.684Z,4.20
2023-01-03T00:35:04.576Z,4.17
2023-01-03T00:37:06.978Z,4.23
2023-01-03T00:39:09.248Z,4.13
2023-01-03T00:41:16.449Z,4.50
2023-01-03T00:43:30.549Z,4.33
2023-01-03T00:45:35.437Z,4.30
2023-01-03T00:47:37.713Z,4.17
2023-01-03T00:49:39.683Z,4.57
2023-01-03T00:51:42.285Z,4.83
2023-01-03T00:53:46.403Z,4.60
2023-01-03T00:55:48.174Z,4.50
2023-01-03T00:57:50.060Z,4.33
2023-01-03T00:59:51.804Z,5.17
2023-01-03T01:01:56.213Z,4.53
2023-01-03T01:04:06.749Z,4.43
2023-01-03T01:06:18.769Z,4.30
2023-01-03T01:08:20.534Z,4.07
2023-01-03T01:10:22.945Z,4.33
2023-01-03T01:12:24.672Z,4.30
2023-01-03T01:14:28.916Z,4.40
2023-01-03T01:16:33.233Z,4.23
2023-01-03T01:18:35.530Z,5.20
2023-01-03T01:20:39.865Z,4.83
2023-01-03T01:22:41.668Z,4.57
2023-01-03T01:24:43.463Z,4.70
2023-01-03T01:26:47.664Z,4.33
2023-01-03T01:28:50.629Z,4.57
2023-01-03T01:30:52.434Z,4.37
2023-01-03T01:32:54.593Z,4.50
2023-01-03T01:34:56.428Z,4.70
2023-01-03T01:36:58.205Z,4.60
2023-01-03T01:39:06.614Z,5.00
2023-01-03T01:41:10.874Z,4.67
2023-01-03T01:43:39.296Z,4.67
2023-01-03T01:45:41.222Z,4.90
2023-01-03T01:47:55.543Z,4.93
2023-01-03T01:50:22.226Z,5.63
2023-01-03T01:52:25.423Z,4.50
2023-01-03T01:54:27.188Z,4.83
2023-01-03T01:56:34.083Z,5.00
2023-01-03T01:58:38.537Z,4.80
2023-01-03T02:00:42.750Z,5.03
2023-01-03T02:02:48.261Z,5.00
2023-01-03T02:04:54.132Z,5.20
2023-01-03T02:06:57.446Z,5.27
2023-01-03T02:08:59.587Z,4.93
2023-01-03T02:11:27.367Z,5.07
2023-01-03T02:14:02.938Z,5.07
2023-01-03T02:16:07.789Z,5.30
2023-01-03T02:18:35.502Z,5.07
2023-01-03T02:21:19.806Z,5.23
2023-01-03T02:23:32.048Z,5.13
2023-01-03T02:26:05.117Z,5.17
2023-01-03T02:28:35.879Z,4.90
2023-01-03T02:30:50.575Z,5.00
2023-01-03T02:33:20.184Z,4.53
2023-01-03T02:35:51.409Z,4.33
2023-01-03T02:38:21.186Z,5.37
2023-01-03T02:40:38.525Z,5.57
2023-01-03T02:43:05.745Z,5.17
2023-01-03T02:45:16.328Z,5.57
2023-01-03T02:47:21.099Z,5.90
2023-01-03T02:49:46.392Z,5.83
2023-01-03T02:51:54.396Z,5.67
2023-01-03T02:53:58.494Z,6.60
2023-01-03T02:56:06.140Z,6.07
2023-01-03T02:58:18.083Z,6.53
2023-01-03T03:00:24.325Z,6.67
2023-01-03T03:02:32.586Z,6.10
2023-01-03T03:04:36.665Z,6.47
2023-01-03T03:07:09.090Z,6.43
2023-01-03T03:09:11.097Z,5.90
2023-01-03T03:11:32.058Z,5.87
2023-01-03T03:13:58.265Z,5.83
2023-01-03T03:16:18.584Z,5.70
2023-01-03T03:18:30.164Z,5.50
2023-01-03T03:20:53.291Z,5.60
2023-01-03T03:23:17.332Z,5.13
2023-01-03T03:25:33.604Z,5.83
2023-01-03T03:27:57.998Z,6.17
2023-01-03T03:30:02.653Z,6.33
2023-01-03T03:32:05.672Z,6.23
2023-01-03T03:34:17.734Z,6.00
2023-01-03T03:36:35.876Z,6.30
2023-01-03T03:38:44.129Z,6.73
2023-01-03T03:41:14.020Z,6.40
2023-01-03T03:43:44.948Z,6.50
2023-01-03T03:45:59.049Z,6.90
2023-01-03T03:48:18.355Z,6.60
2023-01-03T03:50:36.795Z,6.33
2023-01-03T03:52:42.394Z,6.60
2023-01-03T03:55:10.765Z,6.73
2023-01-03T03:57:27.092Z,6.23
2023-01-03T03:59:31.009Z,6.23
2023-01-03T04:01:36.281Z,6.37
2023-01-03T04:03:40.938Z,6.50
2023-01-03T04:05:55.764Z,7.17
2023-01-03T04:07:57.664Z,6.97
2023-01-03T04:09:59.806Z,7.10
2023-01-03T04:12:01.698Z,6.93
2023-01-03T04:14:03.455Z,6.67
2023-01-03T04:16:06.759Z,6.80
2023-01-03T04:18:08.546Z,6.10
2023-01-03T04:20:11.751Z,6.57
2023-01-03T04:22:13.445Z,9.67
2023-01-03T04:24:15.344Z,8.13
2023-01-03T04:26:17.405Z,7.30
2023-01-03T04:28:19.927Z,6.40
2023-01-03T04:30:22.861Z,6.77
2023-01-03T04:32:24.809Z,6.90
2023-01-03T04:34:26.772Z,6.53
2023-01-03T04:36:28.643Z,6.73
2023-01-03T04:38:30.487Z,6.53
2023-01-03T04:40:34.753Z,6.87
2023-01-03T04:42:55.304Z,7.43
2023-01-03T04:44:57.299Z,6.47
2023-01-03T04:47:00.149Z,7.07
2023-01-03T04:49:02.447Z,6.50
2023-01-03T04:51:04.317Z,6.90
2023-01-03T04:53:06.613Z,6.57
2023-01-03T04:55:09.698Z,6.37
2023-01-03T04:57:11.478Z,7.20
2023-01-03T04:59:13.266Z,6.57
2023-01-03T05:01:15.157Z,6.70
2023-01-03T05:03:19.031Z,6.00
2023-01-03T05:05:21.984Z,6.60
2023-01-03T05:07:23.852Z,6.13
2023-01-03T05:09:27.174Z,6.20
2023-01-03T05:11:29.048Z,6.23
2023-01-03T05:13:31.847Z,5.00
2023-01-03T05:15:36.914Z,5.50
2023-01-03T05:17:38.669Z,5.10
2023-01-03T05:19:58.963Z,5.23
2023-01-03T05:22:19.376Z,4.60
2023-01-03T05:24:56.251Z,4.70
2023-01-03T05:27:04.260Z,4.33
2023-01-03T05:29:07.576Z,4.63
2023-01-03T05:31:09.824Z,4.50
2023-01-03T05:33:11.651Z,4.27
2023-01-03T05:35:13.472Z,4.67
2023-01-03T05:37:15.283Z,4.90
2023-01-03T05:39:17.192Z,4.23
2023-01-03T05:41:39.010Z,4.70
2023-01-03T05:43:40.883Z,4.40
2023-01-03T05:45:42.739Z,4.70
2023-01-03T05:47:44.685Z,4.67
2023-01-03T05:49:46.526Z,5.07
2023-01-03T05:51:48.309Z,4.50
2023-01-03T05:53:50.140Z,3.90
2023-01-03T05:55:52.069Z,4.57
2023-01-03T05:57:53.957Z,4.83
2023-01-03T05:59:55.821Z,4.40
2023-01-03T06:01:57.721Z,5.10
2023-01-03T06:03:59.877Z,4.67
2023-01-03T06:06:06.197Z,4.97
2023-01-03T06:08:08.029Z,5.10
2023-01-03T06:10:10.562Z,5.00
2023-01-03T06:12:12.412Z,5.27
2023-01-03T06:14:14.298Z,5.07
2023-01-03T06:16:39.560Z,5.00
2023-01-03T06:18:41.724Z,4.87
2023-01-03T06:20:43.643Z,5.17
2023-01-03T06:22:48.533Z,5.27
2023-01-03T06:24:50.725Z,4.80
2023-01-03T06:26:52.898Z,5.10
2023-01-03T06:28:54.786Z,5.40
2023-01-03T06:30:57.123Z,5.10
2023-01-03T06:32:59.149Z,5.60
2023-01-03T06:35:01.214Z,5.30
2023-01-03T06:37:03.319Z,5.50
2023-01-03T06:39:05.091Z,5.07
2023-01-03T06:41:07.374Z,5.10
2023-01-03T06:43:09.132Z,4.73
2023-01-03T06:45:33.576Z,4.50
2023-01-03T06:47:55.824Z,4.60
2023-01-03T06:50:29.894Z,4.40
2023-01-03T06:52:51.119Z,4.80
2023-01-03T06:54:53.969Z,5.77
2023-01-03T06:56:56.304Z,7.20
2023-01-03T06:58:58.174Z,5.63
2023-01-03T07:01:03.511Z,4.70
2023-01-03T07:03:11.126Z,3.80
2023-01-03T07:05:14.256Z,4.40
2023-01-03T07:07:15.966Z,4.17
2023-01-03T07:09:17.855Z,5.20
2023-01-03T07:11:19.602Z,4.60
2023-01-03T07:13:40.195Z,5.93
2023-01-03T07:15:45.857Z,6.07
2023-01-03T07:17:47.738Z,5.90
2023-01-03T07:19:49.940Z,5.37
2023-01-03T07:21:51.796Z,4.13
2023-01-03T07:23:55.028Z,3.70
2023-01-03T07:25:56.876Z,3.57
2023-01-03T07:28:05.413Z,4.20
2023-01-03T07:30:08.748Z,4.30
2023-01-03T07:32:11.722Z,4.90
2023-01-03T07:34:14.226Z,4.77
2023-01-03T07:36:17.323Z,4.97
2023-01-03T07:38:19.077Z,4.10
2023-01-03T07:40:21.026Z,3.27
2023-01-03T07:42:41.621Z,3.50
2023-01-03T07:44:43.378Z,3.50
2023-01-03T07:46:45.418Z,3.13
2023-01-03T07:48:56.990Z,3.00
2023-01-03T07:50:59.046Z,3.33
2023-01-03T07:53:00.876Z,3.50
2023-01-03T07:55:02.647Z,3.60
2023-01-03T07:57:04.567Z,3.40
2023-01-03T07:59:06.413Z,3.73
2023-01-03T08:01:16.957Z,3.53
2023-01-03T08:03:19.089Z,3.67
2023-01-03T08:05:22.036Z,3.87
2023-01-03T08:07:23.890Z,3.93
2023-01-03T08:09:44.209Z,4.33
2023-01-03T08:12:06.240Z,3.93
2023-01-03T08:14:08.017Z,3.80
2023-01-03T08:16:12.325Z,3.63
2023-01-03T08:18:14.959Z,3.57
2023-01-03T08:20:16.831Z,3.20
2023-01-03T08:22:18.621Z,3.77
2023-01-03T08:24:20.479Z,3.63
2023-01-03T08:26:22.287Z,3.90
2023-01-03T08:28:24.076Z,3.60
2023-01-03T08:30:25.951Z,3.83
2023-01-03T08:32:28.196Z,3.90
2023-01-03T08:34:36.071Z,4.00
2023-01-03T08:36:47.266Z,3.63
2023-01-03T08:38:54.827Z,4.03
2023-01-03T08:40:59.101Z,4.30
2023-01-03T08:43:02.975Z,4.47
2023-01-03T08:45:08.810Z,5.00
2023-01-03T08:47:13.453Z,4.73
2023-01-03T08:49:15.779Z,4.07
2023-01-03T08:51:17.645Z,3.80
2023-01-03T08:53:19.480Z,4.00
2023-01-03T08:55:21.186Z,4.10
2023-01-03T08:57:23.531Z,4.50
2023-01-03T08:59:25.353Z,4.60
2023-01-03T09:01:27.574Z,4.47
2023-01-03T09:03:29.828Z,3.90
2023-01-03T09:05:32.024Z,3.90
2023-01-03T09:07:34.236Z,4.60
2023-01-03T09:09:35.972Z,4.80
2023-01-03T09:11:37.832Z,4.37
2023-01-03T09:13:39.825Z,4.53
2023-01-03T09:15:41.978Z,4.50
2023-01-03T09:17:45.334Z,4.53
2023-01-03T09:19:47.877Z,4.10
2023-01-03T09:21:49.605Z,4.83
2023-01-03T09:23:51.870Z,4.70
2023-01-03T09:25:53.791Z,4.57
2023-01-03T09:27:55.626Z,4.37
2023-01-03T09:29:57.432Z,4.37
2023-01-03T09:32:03.172Z,4.70
2023-01-03T09:34:05.404Z,5.03
2023-01-03T09:36:07.476Z,5.00
2023-01-03T09:38:10.099Z,4.80
2023-01-03T09:40:12.672Z,5.07
2023-01-03T09:42:45.810Z,5.30
2023-01-03T09:44:47.645Z,4.87
2023-01-03T09:46:49.489Z,4.70
2023-01-03T09:48:53.238Z,4.63
2023-01-03T09:51:18.377Z,5.00
2023-01-03T09:53:56.361Z,4.80
2023-01-03T09:56:18.905Z,4.90
2023-01-03T09:58:40.196Z,4.70
2023-01-03T10:01:08.638Z,4.60
2023-01-03T10:03:48.048Z,4.80
2023-01-03T10:06:13.284Z,4.90
2023-01-03T10:08:38.760Z,4.63
2023-01-03T10:11:05.069Z,5.00
2023-01-03T10:13:29.905Z,5.00
2023-01-03T10:15:43.745Z,4.80
2023-01-03T10:18:08.337Z,4.93
2023-01-03T10:20:34.379Z,4.60
2023-01-03T10:22:37.937Z,4.43
2023-01-03T10:24:57.251Z,5.43
2023-01-03T10:27:15.449Z,5.17
2023-01-03T10:29:18.279Z,5.10
2023-01-03T10:31:32.100Z,5.07
2023-01-03T10:33:42.382Z,5.30
2023-01-03T10:35:44.221Z,5.10
2023-01-03T10:37:47.013Z,4.90
2023-01-03T10:40:03.193Z,4.33
2023-01-03T10:42:05.368Z,4.83
2023-01-03T10:44:07.234Z,5.10
2023-01-03T10:46:21.797Z,4.50
2023-01-03T10:48:24.898Z,5.10
2023-01-03T10:50:27.872Z,4.83
2023-01-03T10:52:37.693Z,4.70
2023-01-03T10:54:59.083Z,4.67
2023-01-03T10:57:00.824Z,4.70
2023-01-03T10:59:22.854Z,4.20
2023-01-03T11:01:25.356Z,4.57
2023-01-03T11:03:28.208Z,4.80
2023-01-03T11:05:30.026Z,5.03
2023-01-03T11:07:32.331Z,5.20
2023-01-03T11:09:54.597Z,4.70
2023-01-03T11:12:04.215Z,4.47
2023-01-03T11:14:14.891Z,4.90
2023-01-03T11:16:19.549Z,4.60
2023-01-03T11:18:21.740Z,4.17
2023-01-03T11:20:46.428Z,4.57
2023-01-03T11:23:02.169Z,5.23
2023-01-03T11:25:27.272Z,4.80
2023-01-03T11:27:44.005Z,4.73
2023-01-03T11:30:20.647Z,5.03
2023-01-03T11:32:25.275Z,6.07
2023-01-03T11:34:48.490Z,5.80
2023-01-03T11:37:09.598Z,4.50
2023-01-03T11:39:24.585Z,4.47
2023-01-03T11:41:43.136Z,5.00
2023-01-03T11:44:18.996Z,4.70
2023-01-03T11:46:20.835Z,4.10
2023-01-03T11:48:47.077Z,4.37
2023-01-03T11:51:09.631Z,4.87
2023-01-03T11:53:32.481Z,4.80
2023-01-03T11:56:18.153Z,4.90
2023-01-03T11:58:54.691Z,4.40
2023-01-03T12:01:23.728Z,4.97
2023-01-03T12:03:36.059Z,5.00
2023-01-03T12:05:54.179Z,4.93
2023-01-03T12:08:04.293Z,4.77
2023-01-03T12:11:07.657Z,4.90
2023-01-03T12:13:26.889Z,4.33
2023-01-03T12:15:43.824Z,4.40
2023-01-03T12:18:08.908Z,4.00
2023-01-03T12:20:33.386Z,4.00
2023-01-03T12:22:39.750Z,3.80
2023-01-03T12:25:04.484Z,3.60
2023-01-03T12:27:17.294Z,3.87
2023-01-03T12:29:30.079Z,3.50
2023-01-03T12:31:44.370Z,3.20
2023-01-03T12:34:12.515Z,3.50
2023-01-03T12:36:16.943Z,3.40
2023-01-03T12:38:24.192Z,2.93
2023-01-03T12:41:01.425Z,3.60
2023-01-03T12:43:13.943Z,3.10
2023-01-03T12:45:38.711Z,3.43
2023-01-03T12:47:53.872Z,3.40
2023-01-03T12:50:13.749Z,2.70
2023-01-03T12:52:18.516Z,3.10
2023-01-03T12:54:46.483Z,2.87
2023-01-03T12:57:03.696Z,2.80
2023-01-03T12:59:43.259Z,2.67
2023-01-03T13:01:59.216Z,2.80
2023-01-03T13:04:12.900Z,2.60
2023-01-03T13:06:31.810Z,2.77
2023-01-03T13:09:04.244Z,2.73
2023-01-03T13:11:26.466Z,2.90
2023-01-03T13:13:31.816Z,3.43
2023-01-03T13:15:37.769Z,2.83
2023-01-03T13:17:45.478Z,2.90
2023-01-03T13:19:54.338Z,2.87
2023-01-03T13:22:19.558Z,2.70
2023-01-03T13:24:47.540Z,2.80
2023-01-03T13:27:17.653Z,2.90
2023-01-03T13:29:34.490Z,2.87
2023-01-03T13:31:38.611Z,2.63
2023-01-03T13:33:55.532Z,2.27
2023-01-03T13:36:00.490Z,2.37
2023-01-03T13:38:30.631Z,2.63
2023-01-03T13:41:15.955Z,2.30
2023-01-03T13:43:16.679Z,2.50
2023-01-03T13:45:33.140Z,2.57
2023-01-03T13:47:42.603Z,2.50
2023-01-03T13:49:53.654Z,2.30
2023-01-03T13:51:58.099Z,2.27
2023-01-03T13:54:10.786Z,2.20
2023-01-03T13:56:15.338Z,2.33
2023-01-03T13:59:05.444Z,2.07
2023-01-03T14:01:30.023Z,2.40
2023-01-03T14:03:53.780Z,2.10
2023-01-03T14:06:04.720Z,2.60
2023-01-03T14:08:06.632Z,2.10
2023-01-03T14:10:43.927Z,2.47
2023-01-03T14:13:18.699Z,2.50
2023-01-03T14:17:46.580Z,2.30
2023-01-03T14:20:00.852Z,2.30
2023-01-03T14:22:27.878Z,2.20
2023-01-03T14:24:36.320Z,2.20
2023-01-03T14:26:38.159Z,2.00
2023-01-03T14:28:40.284Z,2.27
2023-01-03T14:30:43.821Z,2.27
2023-01-03T14:32:46.360Z,1.90
2023-01-03T14:34:48.483Z,1.93
2023-01-03T14:36:50.233Z,2.30
2023-01-03T14:39:01.921Z,2.10
2023-01-03T14:41:04.794Z,2.10
2023-01-03T14:43:06.636Z,2.03
2023-01-03T14:45:17.232Z,2.10
2023-01-03T14:47:19.371Z,2.10
2023-01-03T14:49:43.752Z,2.43
2023-01-03T14:51:45.999Z,2.10
2023-01-03T14:53:48.148Z,2.20
2023-01-03T14:55:52.929Z,2.57
2023-01-03T14:57:55.692Z,2.70
2023-01-03T15:00:00.379Z,2.17
2023-01-03T15:02:02.773Z,2.20
2023-01-03T15:04:06.180Z,2.50
2023-01-03T15:06:28.941Z,2.27
2023-01-03T15:08:34.180Z,2.57
2023-01-03T15:10:55.443Z,2.27
2023-01-03T15:13:04.232Z,2.47
2023-01-03T15:15:27.522Z,2.50
2023-01-03T15:17:29.453Z,2.50
2023-01-03T15:19:34.485Z,2.60
2023-01-03T15:21:36.421Z,2.10
2023-01-03T15:23:43.112Z,2.17
2023-01-03T15:25:45.190Z,2.30
2023-01-03T15:27:49.845Z,2.80
2023-01-03T15:29:51.685Z,2.17
2023-01-03T15:31:53.533Z,2.50
2023-01-03T15:34:03.787Z,2.67
2023-01-03T15:36:18.163Z,2.30
2023-01-03T15:38:33.678Z,2.10
2023-01-03T15:40:39.926Z,2.23
2023-01-03T15:43:04.995Z,2.50
2023-01-03T15:45:22.373Z,2.20
2023-01-03T15:47:28.824Z,2.57
2023-01-03T15:49:33.069Z,2.90
2023-01-03T15:51:34.915Z,2.67
2023-01-03T15:53:44.396Z,2.40
2023-01-03T15:55:48.557Z,2.10
2023-01-03T15:57:52.707Z,2.30
2023-01-03T16:00:02.288Z,2.53
2023-01-03T16:02:18.586Z,2.77
2023-01-03T16:04:21.332Z,3.10
2023-01-03T16:06:23.622Z,2.10
2023-01-03T16:08:34.868Z,1.80
2023-01-03T16:10:36.965Z,2.00
2023-01-03T16:12:43.188Z,2.70
2023-01-03T16:14:48.200Z,2.43
2023-01-03T16:16:53.596Z,2.67
2023-01-03T16:18:56.806Z,2.90
2023-01-03T16:20:58.714Z,2.57
2023-01-03T16:23:01.913Z,2.90
2023-01-03T16:25:05.427Z,2.70
2023-01-03T16:27:23.312Z,2.90
2023-01-03T16:29:25.109Z,3.17
2023-01-03T16:31:34.532Z,3.20
2023-01-03T16:33:36.959Z,2.57
2023-01-03T16:35:38.938Z,3.30
2023-01-03T16:37:40.758Z,3.20
2023-01-03T16:39:48.068Z,3.90
2023-01-03T16:42:10.908Z,3.50
2023-01-03T16:44:12.913Z,2.90
2023-01-03T16:46:18.926Z,3.00
2023-01-03T16:48:24.017Z,3.80
2023-01-03T16:50:25.929Z,3.20
2023-01-03T16:52:34.466Z,3.03
2023-01-03T16:54:36.659Z,3.30
2023-01-03T16:56:38.512Z,2.93
2023-01-03T16:58:40.319Z,3.60
2023-01-03T17:00:42.548Z,3.73
2023-01-03T17:02:44.588Z,3.57
2023-01-03T17:04:46.588Z,3.80
2023-01-03T17:06:49.529Z,3.73
2023-01-03T17:08:51.890Z,3.83
2023-01-03T17:10:56.630Z,3.13
2023-01-03T17:12:59.618Z,3.63
2023-01-03T17:15:01.503Z,3.43
2023-01-03T17:17:03.505Z,3.40
2023-01-03T17:19:05.310Z,2.87
2023-01-03T17:21:34.108Z,3.30
2023-01-03T17:23:39.433Z,3.10
2023-01-03T17:25:42.022Z,3.20
2023-01-03T17:27:49.685Z,3.70
2023-01-03T17:30:01.276Z,3.20
2023-01-03T17:32:03.205Z,3.20
2023-01-03T17:34:26.962Z,3.17
2023-01-03T17:36:34.230Z,3.37
2023-01-03T17:38:36.015Z,3.43
2023-01-03T17:40:41.252Z,3.83
2023-01-03T17:42:43.709Z,4.00
2023-01-03T17:45:09.107Z,3.40
2023-01-03T17:47:35.790Z,3.30
2023-01-03T17:49:37.592Z,3.37
2023-01-03T17:51:39.481Z,3.70
2023-01-03T17:53:42.921Z,3.60
2023-01-03T17:55:49.069Z,3.97
2023-01-03T17:57:51.090Z,3.60
2023-01-03T17:59:52.824Z,3.60
2023-01-03T18:01:55.210Z,3.40
2023-01-03T18:03:57.220Z,3.37
2023-01-03T18:06:05.065Z,4.43
2023-01-03T18:08:11.787Z,4.60
2023-01-03T18:10:20.626Z,4.33
2023-01-03T18:12:23.910Z,3.70
2023-01-03T18:14:25.739Z,3.93
2023-01-03T18:16:27.613Z,4.00
2023-01-03T18:18:29.698Z,4.27
2023-01-03T18:20:31.864Z,3.77
2023-01-03T18:22:34.356Z,3.70
2023-01-03T18:24:36.133Z,3.20
2023-01-03T18:26:43.658Z,3.60
2023-01-03T18:28:45.568Z,4.00
2023-01-03T18:30:47.327Z,4.73
2023-01-03T18:32:49.654Z,3.97
2023-01-03T18:34:51.427Z,3.60
2023-01-03T18:36:53.919Z,4.27
2023-01-03T18:39:05.237Z,3.77
2023-01-03T18:41:17.979Z,4.50
2023-01-03T18:43:21.234Z,3.90
2023-01-03T18:45:23.082Z,3.57
2023-01-03T18:47:25.260Z,3.67
2023-01-03T18:49:27.234Z,4.47
2023-01-03T18:51:29.476Z,3.90
2023-01-03T18:53:33.039Z,3.80
2023-01-03T18:55:35.655Z,4.13
2023-01-03T18:57:37.537Z,3.43
2023-01-03T18:59:39.301Z,3.57
2023-01-03T19:01:41.239Z,3.50
2023-01-03T19:03:44.367Z,3.80
2023-01-03T19:05:46.208Z,3.80
2023-01-03T19:07:50.646Z,3.57
2023-01-03T19:09:52.580Z,3.60
2023-01-03T19:11:54.911Z,3.37
2023-01-03T19:13:59.925Z,3.73
2023-01-03T19:16:01.890Z,3.70
2023-01-03T19:18:04.116Z,3.90
2023-01-03T19:20:06.947Z,3.83
2023-01-03T19:22:26.968Z,3.50
2023-01-03T19:24:39.410Z,4.27
2023-01-03T19:26:49.041Z,3.60
2023-01-03T19:28:56.294Z,3.57
2023-01-03T19:31:03.659Z,4.20
2023-01-03T19:33:16.164Z,3.90
2023-01-03T19:35:18.958Z,3.77
2023-01-03T19:37:20.741Z,3.47
2023-01-03T19:39:25.702Z,3.90
2023-01-03T19:41:28.169Z,3.63
2023-01-03T19:43:30.203Z,3.67
2023-01-03T19:45:38.216Z,3.10
2023-01-03T19:47:40.066Z,3.47
2023-01-03T19:49:43.745Z,3.43
2023-01-03T19:51:45.591Z,3.37
2023-01-03T19:53:47.321Z,3.10
2023-01-03T19:55:52.068Z,2.87
2023-01-03T19:57:54.200Z,3.17
2023-01-03T19:59:59.367Z,3.00
2023-01-03T20:04:25.881Z,2.70
2023-01-03T20:06:27.886Z,3.17
2023-01-03T20:08:29.735Z,2.60
2023-01-03T20:10:36.453Z,2.90
2023-01-03T20:12:38.296Z,2.60
2023-01-03T20:14:41.459Z,2.60
2023-01-03T20:16:43.374Z,2.80
2023-01-03T20:18:45.187Z,2.73
2023-01-03T20:20:48.096Z,2.63
2023-01-03T20:23:07.531Z,2.63
2023-01-03T20:25:30.432Z,2.70
2023-01-03T20:27:32.309Z,3.40
2023-01-03T20:29:34.119Z,2.87
2023-01-03T20:31:36.135Z,2.70
2023-01-03T20:33:37.942Z,3.27
2023-01-03T20:38:02.529Z,3.20
2023-01-03T20:40:04.761Z,3.23
2023-01-03T20:42:22.821Z,2.80
2023-01-03T20:44:24.864Z,2.57
2023-01-03T20:46:27.093Z,3.00
2023-01-03T20:48:29.084Z,4.03
2023-01-03T20:50:30.840Z,3.00
2023-01-03T20:52:33.255Z,2.67
2023-01-03T20:54:35.036Z,2.80
2023-01-03T20:56:36.852Z,2.80
2023-01-03T20:58:39.276Z,3.00
2023-01-03T21:00:41.752Z,3.10
2023-01-03T21:02:43.735Z,2.77
2023-01-03T21:04:45.631Z,2.70
2023-01-03T21:06:48.702Z,3.07
2023-01-03T21:08:54.161Z,3.07
2023-01-03T21:10:56.142Z,3.07
2023-01-03T21:12:58.452Z,3.10
2023-01-03T21:15:00.471Z,3.20
2023-01-03T21:17:02.290Z,3.17
2023-01-03T21:19:08.400Z,3.10
2023-01-03T21:21:19.699Z,3.40
2023-01-03T21:23:25.783Z,3.53
2023-01-03T21:25:34.128Z,3.07
2023-01-03T21:27:35.885Z,3.27
2023-01-03T21:29:37.634Z,3.80
2023-01-03T21:31:42.251Z,3.47
2023-01-03T21:33:44.986Z,3.80
2023-01-03T21:35:49.719Z,3.70
2023-01-03T21:37:53.130Z,3.83
2023-01-03T21:39:54.854Z,3.57
2023-01-03T21:42:15.353Z,4.10
2023-01-03T21:44:18.399Z,3.53
2023-01-03T21:46:21.101Z,4.63
2023-01-03T21:48:22.948Z,4.00
2023-01-03T21:50:25.765Z,4.07
2023-01-03T21:52:27.552Z,4.20
2023-01-03T21:54:29.302Z,4.70
2023-01-03T21:56:31.058Z,4.60
2023-01-03T21:58:32.832Z,4.47
2023-01-03T22:00:34.695Z,4.50
2023-01-03T22:02:59.852Z,5.10
2023-01-03T22:05:02.161Z,5.13
2023-01-03T22:07:03.867Z,4.20
2023-01-03T22:09:25.800Z,4.90
2023-01-03T22:11:28.528Z,5.07
2023-01-03T22:13:30.678Z,4.20
2023-01-03T22:15:35.959Z,4.80
2023-01-03T22:17:39.286Z,4.27
2023-01-03T22:19:41.254Z,4.13
2023-01-03T22:21:43.009Z,4.10
2023-01-03T22:23:44.769Z,4.60
2023-01-03T22:25:46.648Z,3.77
2023-01-03T22:27:48.955Z,5.37
2023-01-03T22:29:50.716Z,4.50
2023-01-03T22:31:52.656Z,4.33
2023-01-03T22:33:54.925Z,4.03
2023-01-03T22:35:58.091Z,3.90
2023-01-03T22:37:59.872Z,4.03
2023-01-03T22:40:01.879Z,4.27
2023-01-03T22:42:04.114Z,4.13
2023-01-03T22:44:06.147Z,3.70
2023-01-03T22:46:09.705Z,4.27
2023-01-03T22:48:11.606Z,4.40
2023-01-03T22:50:13.588Z,4.27
2023-01-03T22:52:15.379Z,4.20
2023-01-03T22:54:17.324Z,4.10
2023-01-03T22:56:20.744Z,5.00
2023-01-03T22:58:22.547Z,4.50
2023-01-03T23:00:24.487Z,4.30
2023-01-03T23:02:29.115Z,4.40
2023-01-03T23:04:31.426Z,4.67
2023-01-03T23:06:35.010Z,4.30
2023-01-03T23:08:36.769Z,4.50
2023-01-03T23:10:38.528Z,4.57
2023-01-03T23:12:58.642Z,4.57
2023-01-03T23:15:00.495Z,4.70
2023-01-03T23:17:20.978Z,5.00
2023-01-03T23:19:26.891Z,5.10
2023-01-03T23:21:29.003Z,4.90
2023-01-03T23:23:30.749Z,5.00
2023-01-03T23:25:35.229Z,4.50
2023-01-03T23:27:37.022Z,5.40
2023-01-03T23:29:38.928Z,5.00
2023-01-03T23:31:41.277Z,4.97
2023-01-03T23:33:43.049Z,4.40
2023-01-03T23:35:45.095Z,4.60
2023-01-03T23:37:47.560Z,4.83
2023-01-03T23:39:49.315Z,5.00
2023-01-03T23:41:51.118Z,4.93
2023-01-03T23:43:53.384Z,5.07
2023-01-03T23:45:57.938Z,4.97
2023-01-03T23:47:59.852Z,4.70
2023-01-03T23:50:01.593Z,4.50
2023-01-03T23:52:03.456Z,4.93
2023-01-03T23:54:05.180Z,4.97
2023-01-03T23:56:09.402Z,4.43
2023-01-03T23:58:11.278Z,4.17
